Time;durP1;ratioP1;P1;durP2;ratioP2;P2;SDS_P1;SDS_P2;PMS_P1;PMS_P2;Temp;Humidity;BMP_temperature;BMP_pressure;BME280_temperature;BME280_humidity;BME280_pressure;Samples;Min_cycle;Max_cycle;Signal;HPM_P1;HPM_P2
2021/04/18 00:00:21;;;;;;;29.67;12.32;;;;;;;;;;5049824;28;20469;-64
2021/04/18 00:02:47;;;;;;;29.92;12.95;;;;;;;;;;5049666;28;20021;-64
2021/04/18 00:05:14;;;;;;;26.50;13.05;;;;;;;;;;5049908;28;20076;-64
2021/04/18 00:07:39;;;;;;;29.35;12.25;;;;;;;;;;5049778;28;20114;-64
2021/04/18 00:10:05;;;;;;;24.13;12.18;;;;;;;;;;5049938;28;20461;-64
2021/04/18 00:12:30;;;;;;;31.50;12.82;;;;;;;;;;5049839;28;20065;-64
2021/04/18 00:14:56;;;;;;;25.00;11.65;;;;;;;;;;5049148;28;20071;-64
2021/04/18 00:17:21;;;;;;;30.77;11.98;;;;;;;;;;5050018;28;20029;-64
2021/04/18 00:19:47;;;;;;;27.77;12.23;;;;;;;;;;5049718;28;20115;-64
2021/04/18 00:22:12;;;;;;;31.38;11.88;;;;;;;;;;5049339;28;20033;-64
2021/04/18 00:24:37;;;;;;;25.70;12.23;;;;;;;;;;5049124;28;20128;-64
2021/04/18 00:27:03;;;;;;;26.90;12.80;;;;;;;;;;5049278;28;20045;-64
2021/04/18 00:29:28;;;;;;;25.95;12.30;;;;;;;;;;5048990;28;20116;-64
2021/04/18 00:31:54;;;;;;;33.97;12.93;;;;;;;;;;5049221;28;20052;-64
2021/04/18 00:34:19;;;;;;;32.83;13.50;;;;;;;;;;5049148;28;20118;-64
2021/04/18 00:36:45;;;;;;;28.30;13.02;;;;;;;;;;5049031;28;20036;-64
2021/04/18 00:39:10;;;;;;;28.15;12.07;;;;;;;;;;5048615;28;20075;-64
2021/04/18 00:41:35;;;;;;;33.22;13.30;;;;;;;;;;5048779;28;20033;-64
2021/04/18 00:44:01;;;;;;;34.83;12.60;;;;;;;;;;5049085;28;20037;-64
2021/04/18 00:46:26;;;;;;;30.60;12.60;;;;;;;;;;5048592;28;20064;-64
2021/04/18 00:48:51;;;;;;;31.30;12.93;;;;;;;;;;5049024;28;20585;-64
2021/04/18 00:51:17;;;;;;;26.42;12.00;;;;;;;;;;5048830;28;20037;-64
2021/04/18 00:53:42;;;;;;;28.67;13.25;;;;;;;;;;5049021;28;20052;-64
2021/04/18 00:56:08;;;;;;;35.08;13.80;;;;;;;;;;5048675;28;20028;-64
2021/04/18 00:58:34;;;;;;;29.88;13.25;;;;;;;;;;5048939;28;20116;-64
2021/04/18 01:00:59;;;;;;;33.53;13.60;;;;;;;;;;5048963;28;20108;-64
2021/04/18 01:03:25;;;;;;;37.17;14.30;;;;;;;;;;5049044;28;20033;-64
2021/04/18 01:05:50;;;;;;;42.35;14.65;;;;;;;;;;5048115;28;20760;-64
2021/04/18 01:08:15;;;;;;;34.70;13.27;;;;;;;;;;5048782;28;20241;-64
2021/04/18 01:10:41;;;;;;;29.95;12.88;;;;;;;;;;5048779;28;20029;-64
2021/04/18 01:13:06;;;;;;;33.45;13.50;;;;;;;;;;5048090;28;20062;-64
2021/04/18 01:15:32;;;;;;;33.53;13.30;;;;;;;;;;5049036;28;20028;-64
2021/04/18 01:17:57;;;;;;;28.27;12.85;;;;;;;;;;5047604;28;20062;-64
2021/04/18 01:20:23;;;;;;;34.33;13.65;;;;;;;;;;5046879;28;20037;-64
2021/04/18 01:22:49;;;;;;;36.70;14.75;;;;;;;;;;5048286;28;20354;-64
2021/04/18 01:25:15;;;;;;;32.13;13.25;;;;;;;;;;5048375;28;20063;-64
2021/04/18 01:27:43;;;;;;;33.78;13.70;;;;;;;;;;5047770;28;20080;-64
2021/04/18 01:30:10;;;;;;;34.80;13.55;;;;;;;;;;5048255;28;20086;-64
2021/04/18 01:32:35;;;;;;;37.28;12.52;;;;;;;;;;5040906;28;20060;-64
2021/04/18 01:35:01;;;;;;;38.70;14.23;;;;;;;;;;5046532;28;20446;-64
2021/04/18 01:37:26;;;;;;;37.05;13.60;;;;;;;;;;5047911;28;20100;-64
2021/04/18 01:39:52;;;;;;;30.75;12.98;;;;;;;;;;5047486;28;20048;-64
2021/04/18 01:42:18;;;;;;;38.92;14.23;;;;;;;;;;5048001;28;20029;-64
2021/04/18 01:44:44;;;;;;;38.58;13.30;;;;;;;;;;5048063;28;20049;-64
2021/04/18 01:47:09;;;;;;;31.70;13.27;;;;;;;;;;5047949;28;20064;-64
2021/04/18 01:49:34;;;;;;;33.05;13.73;;;;;;;;;;5047791;28;20810;-64
2021/04/18 01:52:00;;;;;;;30.85;14.13;;;;;;;;;;5047052;28;20049;-64
2021/04/18 01:54:25;;;;;;;37.83;14.32;;;;;;;;;;5048329;28;20026;-64
2021/04/18 01:56:50;;;;;;;40.17;14.35;;;;;;;;;;5048125;28;20426;-64
2021/04/18 01:59:16;;;;;;;28.90;12.80;;;;;;;;;;5047632;28;20552;-64
2021/04/18 02:01:41;;;;;;;33.88;12.38;;;;;;;;;;5047436;28;20029;-64
2021/04/18 02:04:23;;;;;;;34.80;14.65;;;;;;;;;;5048088;28;20075;-64
2021/04/18 02:06:49;;;;;;;34.05;14.40;;;;;;;;;;5047595;28;20503;-64
2021/04/18 02:09:14;;;;;;;41.88;14.35;;;;;;;;;;5047931;28;20049;-64
2021/04/18 02:11:41;;;;;;;39.65;14.50;;;;;;;;;;5047357;28;20017;-64
2021/04/18 02:14:06;;;;;;;40.92;16.27;;;;;;;;;;5047893;28;20110;-64
2021/04/18 02:16:32;;;;;;;44.55;16.15;;;;;;;;;;5047902;28;20662;-64
2021/04/18 02:18:57;;;;;;;44.58;16.77;;;;;;;;;;5047689;28;20017;-63
2021/04/18 02:21:22;;;;;;;42.85;15.75;;;;;;;;;;5046919;28;20135;-64
2021/04/18 02:23:48;;;;;;;44.45;16.40;;;;;;;;;;5047885;28;20041;-64
2021/04/18 02:26:13;;;;;;;48.65;15.95;;;;;;;;;;5047875;28;20070;-64
2021/04/18 02:28:38;;;;;;;41.33;16.00;;;;;;;;;;5047626;28;20527;-64
2021/04/18 02:31:03;;;;;;;44.65;16.50;;;;;;;;;;5047340;28;20090;-64
2021/04/18 02:33:29;;;;;;;49.47;18.13;;;;;;;;;;5047899;28;20020;-64
2021/04/18 02:35:54;;;;;;;47.17;17.70;;;;;;;;;;5047325;28;20128;-64
2021/04/18 02:38:19;;;;;;;49.72;17.17;;;;;;;;;;5047872;28;20064;-64
2021/04/18 02:40:44;;;;;;;43.92;16.35;;;;;;;;;;5047682;28;20428;-64
2021/04/18 02:43:10;;;;;;;44.25;17.95;;;;;;;;;;5046942;28;20117;-64
2021/04/18 02:45:35;;;;;;;45.70;19.50;;;;;;;;;;5047217;28;20489;-64
2021/04/18 02:48:00;;;;;;;49.72;17.08;;;;;;;;;;5047447;28;20036;-64
2021/04/18 02:50:25;;;;;;;43.47;16.30;;;;;;;;;;5047201;28;20029;-64
2021/04/18 02:52:51;;;;;;;44.00;17.08;;;;;;;;;;5046864;28;20033;-64
2021/04/18 02:55:16;;;;;;;43.13;16.77;;;;;;;;;;5047459;28;20021;-64
2021/04/18 02:57:41;;;;;;;51.70;16.70;;;;;;;;;;5047387;28;20033;-64
2021/04/18 03:00:07;;;;;;;45.60;16.60;;;;;;;;;;5047534;28;20032;-64
2021/04/18 03:02:32;;;;;;;47.38;18.80;;;;;;;;;;5047759;28;20449;-64
2021/04/18 03:05:00;;;;;;;50.70;18.08;;;;;;;;;;5050283;28;20033;-64
2021/04/18 03:07:25;;;;;;;51.80;18.67;;;;;;;;;;5051540;28;20128;-64
2021/04/18 03:09:51;;;;;;;53.38;17.92;;;;;;;;;;5051135;28;20111;-64
2021/04/18 03:12:16;;;;;;;46.17;17.27;;;;;;;;;;5050835;28;20037;-64
2021/04/18 03:14:41;;;;;;;50.33;17.83;;;;;;;;;;5050768;28;20048;-63
2021/04/18 03:17:06;;;;;;;47.88;17.88;;;;;;;;;;5050879;28;20024;-64
2021/04/18 03:19:32;;;;;;;43.47;16.03;;;;;;;;;;5050676;28;20445;-64
2021/04/18 03:21:58;;;;;;;43.43;16.50;;;;;;;;;;5050722;28;20039;-64
2021/04/18 03:24:23;;;;;;;45.30;17.33;;;;;;;;;;5050772;28;20021;-64
2021/04/18 03:26:50;;;;;;;46.80;16.95;;;;;;;;;;5050237;28;20066;-64
2021/04/18 03:29:15;;;;;;;47.83;18.00;;;;;;;;;;5050861;28;20069;-64
2021/04/18 03:31:41;;;;;;;49.03;17.55;;;;;;;;;;5050647;28;20051;-64
2021/04/18 03:34:06;;;;;;;50.03;17.35;;;;;;;;;;5050545;28;20031;-63
2021/04/18 03:36:31;;;;;;;50.10;18.13;;;;;;;;;;5050173;28;20060;-64
2021/04/18 03:38:57;;;;;;;41.78;16.10;;;;;;;;;;5050473;28;20049;-64
2021/04/18 03:41:22;;;;;;;51.35;18.13;;;;;;;;;;5050071;28;20029;-64
2021/04/18 03:43:47;;;;;;;52.55;18.45;;;;;;;;;;5050235;28;20036;-64
2021/04/18 03:46:12;;;;;;;48.72;17.27;;;;;;;;;;5049945;28;20021;-64
2021/04/18 03:48:38;;;;;;;44.15;17.42;;;;;;;;;;5048744;28;20048;-64
2021/04/18 03:51:03;;;;;;;46.92;17.08;;;;;;;;;;5050105;28;20060;-64
2021/04/18 03:53:28;;;;;;;54.20;18.83;;;;;;;;;;5050498;28;20104;-64
2021/04/18 03:55:54;;;;;;;53.05;19.30;;;;;;;;;;5049896;28;20040;-64
2021/04/18 03:58:19;;;;;;;42.78;16.80;;;;;;;;;;5049874;28;20063;-64
2021/04/18 04:00:44;;;;;;;43.28;17.95;;;;;;;;;;5050156;28;20477;-64
2021/04/18 04:03:09;;;;;;;44.53;16.80;;;;;;;;;;5049602;28;20041;-64
2021/04/18 04:05:35;;;;;;;53.08;17.08;;;;;;;;;;5050057;28;20044;-64
2021/04/18 04:08:00;;;;;;;41.13;17.15;;;;;;;;;;5033156;28;20099;-64
2021/04/18 04:10:26;;;;;;;49.92;18.05;;;;;;;;;;5049319;28;20021;-63
2021/04/18 04:12:51;;;;;;;50.08;17.70;;;;;;;;;;5049992;28;20041;-64
2021/04/18 04:15:16;;;;;;;48.53;18.98;;;;;;;;;;5049161;28;20028;-64
2021/04/18 04:17:41;;;;;;;44.38;17.70;;;;;;;;;;5049551;28;20497;-64
2021/04/18 04:20:07;;;;;;;55.47;17.83;;;;;;;;;;5048622;28;20036;-64
2021/04/18 04:22:32;;;;;;;51.72;17.35;;;;;;;;;;5049687;28;20738;-64
2021/04/18 04:24:58;;;;;;;49.03;16.73;;;;;;;;;;5049408;28;20504;-64
2021/04/18 04:27:23;;;;;;;50.13;16.80;;;;;;;;;;5048108;28;20037;-64
2021/04/18 04:29:49;;;;;;;51.72;18.60;;;;;;;;;;5049376;28;20021;-64
2021/04/18 04:32:14;;;;;;;56.97;19.58;;;;;;;;;;5049389;28;20086;-64
2021/04/18 04:34:40;;;;;;;49.92;17.35;;;;;;;;;;5046788;28;20028;-64
2021/04/18 04:37:05;;;;;;;57.35;18.33;;;;;;;;;;5048159;28;20377;-64
2021/04/18 04:39:30;;;;;;;53.88;18.15;;;;;;;;;;5047954;28;20064;-64
2021/04/18 04:41:55;;;;;;;48.63;17.17;;;;;;;;;;5049063;28;20058;-63
2021/04/18 04:44:21;;;;;;;50.45;17.42;;;;;;;;;;5049155;28;20016;-64
2021/04/18 04:46:46;;;;;;;59.33;18.17;;;;;;;;;;5049044;28;20091;-64
2021/04/18 04:49:11;;;;;;;56.65;18.45;;;;;;;;;;5048403;28;20044;-64
2021/04/18 04:51:37;;;;;;;47.78;17.65;;;;;;;;;;5048565;28;20063;-64
2021/04/18 04:54:03;;;;;;;60.13;18.88;;;;;;;;;;5049311;28;20029;-64
2021/04/18 04:56:28;;;;;;;50.80;18.90;;;;;;;;;;5048880;28;20028;-64
2021/04/18 04:58:53;;;;;;;50.97;18.02;;;;;;;;;;5049094;28;20012;-64
2021/04/18 05:01:18;;;;;;;53.78;18.98;;;;;;;;;;5048458;28;20389;-64
2021/04/18 05:03:44;;;;;;;50.55;17.40;;;;;;;;;;5048683;28;20044;-64
2021/04/18 05:06:09;;;;;;;61.25;19.63;;;;;;;;;;5049249;28;20063;-64
2021/04/18 05:08:34;;;;;;;53.15;19.77;;;;;;;;;;5048575;28;20043;-64
2021/04/18 05:10:59;;;;;;;60.42;19.15;;;;;;;;;;5048067;28;20041;-64
2021/04/18 05:13:25;;;;;;;55.28;18.85;;;;;;;;;;5048417;28;20024;-64
2021/04/18 05:15:50;;;;;;;55.53;17.73;;;;;;;;;;5049080;28;20033;-65
2021/04/18 05:18:15;;;;;;;51.75;17.77;;;;;;;;;;5048549;28;20111;-64
2021/04/18 05:20:41;;;;;;;51.53;18.33;;;;;;;;;;5039633;28;20017;-63
2021/04/18 05:23:06;;;;;;;40.90;16.25;;;;;;;;;;5046944;28;20392;-63
2021/04/18 05:25:31;;;;;;;48.42;17.73;;;;;;;;;;5047232;28;20036;-64
2021/04/18 05:27:56;;;;;;;53.25;18.25;;;;;;;;;;5047224;28;20048;-64
2021/04/18 05:30:22;;;;;;;40.78;15.77;;;;;;;;;;5047501;28;20036;-64
2021/04/18 05:32:47;;;;;;;48.75;16.73;;;;;;;;;;5046627;28;20445;-64
2021/04/18 05:35:13;;;;;;;54.40;16.88;;;;;;;;;;5047457;28;20027;-64
2021/04/18 05:37:38;;;;;;;45.83;16.17;;;;;;;;;;5048313;28;20183;-65
2021/04/18 05:40:04;;;;;;;42.78;16.05;;;;;;;;;;5047673;28;20081;-64
2021/04/18 05:42:29;;;;;;;41.90;15.73;;;;;;;;;;5048455;28;20100;-63
2021/04/18 05:44:55;;;;;;;41.55;15.55;;;;;;;;;;5047691;28;20158;-64
2021/04/18 05:47:20;;;;;;;41.78;15.63;;;;;;;;;;5047893;28;20402;-64
2021/04/18 05:49:45;;;;;;;39.63;14.75;;;;;;;;;;5048337;28;20025;-65
2021/04/18 05:52:11;;;;;;;32.53;14.40;;;;;;;;;;5048127;28;20033;-64
2021/04/18 05:54:36;;;;;;;32.22;13.48;;;;;;;;;;5047156;28;20072;-64
2021/04/18 05:57:02;;;;;;;29.38;12.98;;;;;;;;;;5048033;28;20025;-64
2021/04/18 05:59:27;;;;;;;19.05;10.30;;;;;;;;;;5046827;28;20043;-65
2021/04/18 06:01:52;;;;;;;19.10;9.55;;;;;;;;;;5047630;28;20112;-65
2021/04/18 06:04:18;;;;;;;18.77;9.30;;;;;;;;;;5047881;28;20020;-65
2021/04/18 06:06:43;;;;;;;12.90;7.68;;;;;;;;;;5047697;28;20033;-65
2021/04/18 06:09:08;;;;;;;20.50;7.28;;;;;;;;;;5047525;28;20036;-65
2021/04/18 06:11:33;;;;;;;12.85;7.05;;;;;;;;;;5047852;28;20017;-64
2021/04/18 06:13:59;;;;;;;16.63;7.32;;;;;;;;;;5047965;28;20667;-65
2021/04/18 06:16:24;;;;;;;19.60;6.97;;;;;;;;;;5047114;28;20508;-65
2021/04/18 06:18:49;;;;;;;14.57;6.63;;;;;;;;;;5047683;28;20104;-65
2021/04/18 06:21:15;;;;;;;12.40;6.88;;;;;;;;;;5047251;28;20064;-65
2021/04/18 06:23:40;;;;;;;9.75;5.95;;;;;;;;;;5047527;28;20041;-65
2021/04/18 06:26:07;;;;;;;12.00;6.10;;;;;;;;;;5047289;28;20044;-65
2021/04/18 06:28:32;;;;;;;10.95;6.30;;;;;;;;;;5047367;28;20051;-65
2021/04/18 06:30:57;;;;;;;10.55;5.90;;;;;;;;;;5047199;28;20626;-65
2021/04/18 06:33:23;;;;;;;11.18;6.20;;;;;;;;;;5047907;28;20038;-66
2021/04/18 06:35:48;;;;;;;8.40;5.40;;;;;;;;;;5047672;28;20040;-65
2021/04/18 06:38:13;;;;;;;10.43;5.43;;;;;;;;;;5048428;28;20036;-63
2021/04/18 06:40:39;;;;;;;10.80;5.50;;;;;;;;;;5050995;28;20063;-63
2021/04/18 06:43:07;;;;;;;8.48;5.53;;;;;;;;;;5051722;28;20187;-63
2021/04/18 06:45:32;;;;;;;10.35;5.57;;;;;;;;;;5051677;28;20048;-64
2021/04/18 06:47:57;;;;;;;9.10;5.38;;;;;;;;;;5050802;28;20029;-63
2021/04/18 06:50:23;;;;;;;9.85;5.68;;;;;;;;;;5051510;28;20028;-63
2021/04/18 06:52:48;;;;;;;8.50;5.47;;;;;;;;;;5051745;28;20535;-63
2021/04/18 06:55:14;;;;;;;8.15;4.97;;;;;;;;;;5049511;28;20392;-63
2021/04/18 06:57:39;;;;;;;9.52;5.35;;;;;;;;;;5051160;28;20083;-63
2021/04/18 07:00:05;;;;;;;10.38;5.95;;;;;;;;;;5050889;28;20094;-64
2021/04/18 07:02:31;;;;;;;11.07;6.60;;;;;;;;;;5051127;28;20029;-63
2021/04/18 07:05:02;;;;;;;9.32;5.45;;;;;;;;;;5051306;28;20029;-63
2021/04/18 07:07:38;;;;;;;8.95;5.82;;;;;;;;;;5051255;28;20124;-63
2021/04/18 07:10:03;;;;;;;;;;;;;;;;;;5034881;28;20218;-64
2021/04/18 07:12:29;;;;;;;7.47;5.43;;;;;;;;;;5051037;28;20003;-64
2021/04/18 07:14:55;;;;;;;10.52;5.78;;;;;;;;;;5051008;28;20152;-64
2021/04/18 07:17:20;;;;;;;12.20;6.32;;;;;;;;;;5050786;28;20448;-64
2021/04/18 07:19:49;;;;;;;10.43;6.03;;;;;;;;;;5050563;28;20350;-64
2021/04/18 07:22:18;;;;;;;9.60;6.70;;;;;;;;;;5050784;28;20033;-63
2021/04/18 07:24:51;;;;;;;11.43;7.03;;;;;;;;;;5050633;28;20488;-64
2021/04/18 07:27:17;;;;;;;11.90;7.35;;;;;;;;;;5050625;28;20056;-64
2021/04/18 07:29:42;;;;;;;12.70;7.40;;;;;;;;;;5050537;28;20091;-64
2021/04/18 07:32:20;;;;;;;13.02;7.20;;;;;;;;;;5050036;28;20037;-64
2021/04/18 07:34:46;;;;;;;13.75;7.60;;;;;;;;;;5040953;28;20046;-64
2021/04/18 07:37:13;;;;;;;16.42;7.15;;;;;;;;;;5046170;28;20025;-64
2021/04/18 07:39:53;;;;;;;10.32;7.85;;;;;;;;;;5049115;28;20045;-64
2021/04/18 07:42:37;;;;;;;12.75;7.60;;;;;;;;;;5048874;28;20386;-64
2021/04/18 07:45:04;;;;;;;14.13;7.40;;;;;;;;;;5048891;28;20056;-64
2021/04/18 07:47:32;;;;;;;13.70;7.35;;;;;;;;;;5049054;28;20151;-64
2021/04/18 07:49:58;;;;;;;12.18;7.57;;;;;;;;;;5048255;28;20091;-64
2021/04/18 07:52:24;;;;;;;9.10;6.93;;;;;;;;;;5048871;28;20059;-65
2021/04/18 07:54:50;;;;;;;9.23;7.00;;;;;;;;;;5050038;28;20029;-65
2021/04/18 07:57:18;;;;;;;11.95;7.13;;;;;;;;;;5048363;28;20530;-65
2021/04/18 07:59:44;;;;;;;10.60;7.32;;;;;;;;;;5049152;28;20520;-65
2021/04/18 08:02:13;;;;;;;13.75;6.88;;;;;;;;;;5048708;28;20474;-65
2021/04/18 08:04:40;;;;;;;9.75;6.30;;;;;;;;;;5049968;28;20041;-65
2021/04/18 08:07:05;;;;;;;9.82;6.20;;;;;;;;;;5049328;28;20025;-64
2021/04/18 08:09:30;;;;;;;10.10;5.82;;;;;;;;;;5049571;28;20048;-65
2021/04/18 08:12:05;;;;;;;9.13;5.38;;;;;;;;;;5049531;28;20148;-65
2021/04/18 08:14:31;;;;;;;10.20;6.50;;;;;;;;;;5047071;28;20017;-65
2021/04/18 08:17:16;;;;;;;14.48;7.80;;;;;;;;;;5049449;28;20428;-65
2021/04/18 08:19:58;;;;;;;10.82;6.60;;;;;;;;;;5049071;28;20489;-65
2021/04/18 08:22:24;;;;;;;7.65;5.75;;;;;;;;;;5048910;28;20033;-65
2021/04/18 08:25:07;;;;;;;9.77;6.38;;;;;;;;;;5049131;28;20515;-65
2021/04/18 08:27:52;;;;;;;10.52;6.88;;;;;;;;;;5049317;28;20486;-65
2021/04/18 08:30:17;;;;;;;9.40;6.07;;;;;;;;;;5034335;28;20492;-65
2021/04/18 08:32:44;;;;;;;9.05;6.80;;;;;;;;;;5049625;28;20033;-65
2021/04/18 08:35:13;;;;;;;11.10;6.85;;;;;;;;;;5048302;28;20021;-65
2021/04/18 08:37:39;;;;;;;8.90;6.30;;;;;;;;;;5048846;28;20032;-65
2021/04/18 08:40:05;;;;;;;10.75;6.60;;;;;;;;;;5047930;28;20049;-65
2021/04/18 08:42:30;;;;;;;7.15;5.18;;;;;;;;;;5049369;28;20744;-65
2021/04/18 08:44:56;;;;;;;10.98;6.90;;;;;;;;;;5048554;28;20057;-65
2021/04/18 08:47:24;;;;;;;12.25;7.32;;;;;;;;;;5049118;28;20033;-65
2021/04/18 08:49:50;;;;;;;9.40;6.50;;;;;;;;;;5048992;28;20021;-65
2021/04/18 08:52:23;;;;;;;8.52;6.28;;;;;;;;;;5048540;28;20070;-65
2021/04/18 08:54:49;;;;;;;11.00;6.90;;;;;;;;;;5049020;28;20075;-65
2021/04/18 08:57:19;;;;;;;10.18;6.65;;;;;;;;;;5047711;28;20029;-65
2021/04/18 08:59:48;;;;;;;10.93;6.55;;;;;;;;;;5048656;28;20389;-65
2021/04/18 09:02:14;;;;;;;10.63;6.60;;;;;;;;;;5048556;28;20388;-65
2021/04/18 09:04:40;;;;;;;10.30;7.45;;;;;;;;;;5049049;28;20021;-65
2021/04/18 09:07:07;;;;;;;10.07;6.75;;;;;;;;;;5047859;28;20094;-65
2021/04/18 09:09:32;;;;;;;11.30;6.22;;;;;;;;;;5049161;28;20045;-65
2021/04/18 09:11:58;;;;;;;10.02;7.60;;;;;;;;;;5048191;28;20116;-65
2021/04/18 09:14:28;;;;;;;8.55;6.57;;;;;;;;;;5048510;28;20024;-65
2021/04/18 09:17:05;;;;;;;12.85;7.18;;;;;;;;;;5047040;28;20553;-65
2021/04/18 09:19:31;;;;;;;10.90;8.23;;;;;;;;;;5048425;28;20082;-65
2021/04/18 09:22:10;;;;;;;13.82;9.13;;;;;;;;;;5032184;28;20033;-65
2021/04/18 09:24:42;;;;;;;13.13;9.18;;;;;;;;;;5045204;28;20029;-65
2021/04/18 09:27:08;;;;;;;15.15;8.98;;;;;;;;;;5044582;28;20075;-65
2021/04/18 09:29:35;;;;;;;13.00;9.90;;;;;;;;;;5044928;28;20032;-65
2021/04/18 09:32:05;;;;;;;12.93;8.73;;;;;;;;;;5045325;28;20103;-65
2021/04/18 09:34:30;;;;;;;11.45;8.63;;;;;;;;;;5045640;28;20061;-65
2021/04/18 09:36:56;;;;;;;13.20;9.00;;;;;;;;;;5044627;28;20182;-65
2021/04/18 09:39:25;;;;;;;15.00;9.05;;;;;;;;;;5042139;28;20516;-65
2021/04/18 09:41:50;;;;;;;12.43;8.73;;;;;;;;;;5044826;28;20132;-65
2021/04/18 09:44:29;;;;;;;17.90;9.68;;;;;;;;;;5045588;28;20092;-65
2021/04/18 09:46:56;;;;;;;12.75;9.13;;;;;;;;;;5044522;28;20033;-65
2021/04/18 09:49:21;;;;;;;11.65;8.30;;;;;;;;;;5044905;28;20051;-65
2021/04/18 09:51:52;;;;;;;11.13;8.98;;;;;;;;;;5044632;28;20021;-65
2021/04/18 09:54:38;;;;;;;11.27;8.20;;;;;;;;;;5044910;28;20021;-65
2021/04/18 09:57:17;;;;;;;10.27;7.88;;;;;;;;;;5043876;28;20052;-65
2021/04/18 09:59:43;;;;;;;12.27;8.10;;;;;;;;;;5044521;28;20025;-66
2021/04/18 10:02:12;;;;;;;11.95;7.90;;;;;;;;;;5044106;28;20106;-65
2021/04/18 10:04:37;;;;;;;17.98;9.32;;;;;;;;;;5045212;28;20078;-65
2021/04/18 10:07:03;;;;;;;11.75;8.52;;;;;;;;;;5044217;28;20485;-65
2021/04/18 10:09:47;;;;;;;13.93;8.07;;;;;;;;;;5044174;28;20084;-65
2021/04/18 10:12:13;;;;;;;14.43;8.43;;;;;;;;;;5043263;28;20082;-65
2021/04/18 10:14:38;;;;;;;15.25;8.57;;;;;;;;;;5044735;28;20033;-65
2021/04/18 10:17:03;;;;;;;12.18;8.48;;;;;;;;;;5044303;28;20012;-65
2021/04/18 10:19:29;;;;;;;18.13;8.55;;;;;;;;;;5044747;28;20032;-65
2021/04/18 10:22:00;;;;;;;17.65;9.48;;;;;;;;;;5042719;28;20663;-65
2021/04/18 10:24:30;;;;;;;12.05;8.55;;;;;;;;;;5044323;28;20044;-65
2021/04/18 10:26:55;;;;;;;15.65;9.07;;;;;;;;;;5044194;28;20030;-65
2021/04/18 10:29:20;;;;;;;14.15;9.80;;;;;;;;;;5044321;28;20106;-65
2021/04/18 10:31:46;;;;;;;11.57;8.88;;;;;;;;;;5043758;28;20055;-65
2021/04/18 10:34:11;;;;;;;15.15;8.98;;;;;;;;;;5044548;28;20527;-64
2021/04/18 10:36:36;;;;;;;15.13;8.82;;;;;;;;;;5044435;28;20036;-64
2021/04/18 10:39:02;;;;;;;15.13;9.55;;;;;;;;;;5044256;28;20516;-64
2021/04/18 10:41:27;;;;;;;14.38;8.88;;;;;;;;;;5044701;28;20025;-64
2021/04/18 10:43:52;;;;;;;14.65;9.27;;;;;;;;;;5043801;28;20044;-64
2021/04/18 10:46:17;;;;;;;12.18;9.02;;;;;;;;;;5043878;28;20020;-64
2021/04/18 10:48:43;;;;;;;13.60;9.60;;;;;;;;;;5044413;28;20390;-65
2021/04/18 10:51:08;;;;;;;14.43;9.20;;;;;;;;;;5044184;28;20043;-64
2021/04/18 10:53:33;;;;;;;13.98;9.13;;;;;;;;;;5043308;28;20027;-64
2021/04/18 10:55:58;;;;;;;12.77;9.40;;;;;;;;;;5044319;28;20036;-64
2021/04/18 10:58:24;;;;;;;16.02;8.93;;;;;;;;;;5043512;28;20057;-64
2021/04/18 11:00:49;;;;;;;18.60;9.35;;;;;;;;;;5043605;28;20025;-66
2021/04/18 11:03:14;;;;;;;15.25;9.70;;;;;;;;;;5041958;28;20094;-67
2021/04/18 11:05:40;;;;;;;16.90;9.25;;;;;;;;;;5043035;28;20548;-67
2021/04/18 11:08:05;;;;;;;13.23;9.13;;;;;;;;;;5044400;28;20061;-67
2021/04/18 11:10:30;;;;;;;16.17;9.35;;;;;;;;;;5038916;28;20441;-66
2021/04/18 11:12:56;;;;;;;14.13;9.18;;;;;;;;;;5040955;28;20672;-66
2021/04/18 11:15:21;;;;;;;16.92;10.02;;;;;;;;;;5041560;28;20013;-66
2021/04/18 11:17:46;;;;;;;17.75;9.82;;;;;;;;;;5041417;28;20159;-66
2021/04/18 11:20:12;;;;;;;15.07;9.10;;;;;;;;;;5041666;28;20408;-66
2021/04/18 11:22:38;;;;;;;15.10;9.95;;;;;;;;;;5041626;28;20029;-66
2021/04/18 11:25:08;;;;;;;19.80;10.55;;;;;;;;;;5043132;28;20040;-67
2021/04/18 11:27:33;;;;;;;18.70;10.35;;;;;;;;;;5045850;28;20033;-66
2021/04/18 11:29:59;;;;;;;15.98;9.65;;;;;;;;;;5045170;28;20024;-66
2021/04/18 11:32:24;;;;;;;17.35;9.48;;;;;;;;;;5044720;28;20407;-66
2021/04/18 11:34:50;;;;;;;14.95;9.35;;;;;;;;;;5043498;28;20048;-66
2021/04/18 11:37:15;;;;;;;19.17;10.15;;;;;;;;;;5044571;28;20033;-66
2021/04/18 11:39:41;;;;;;;17.17;10.68;;;;;;;;;;5044745;28;20056;-66
2021/04/18 11:42:06;;;;;;;21.25;10.82;;;;;;;;;;5043387;28;20109;-67
2021/04/18 11:44:31;;;;;;;17.00;10.70;;;;;;;;;;5040740;28;20425;-67
2021/04/18 11:46:57;;;;;;;13.50;9.35;;;;;;;;;;5045846;28;20041;-66
2021/04/18 11:49:23;;;;;;;17.85;10.55;;;;;;;;;;5045331;28;20401;-66
2021/04/18 11:51:48;;;;;;;16.35;9.77;;;;;;;;;;5044415;28;20075;-66
2021/04/18 11:54:13;;;;;;;18.73;9.63;;;;;;;;;;5043848;28;20037;-66
2021/04/18 11:56:39;;;;;;;16.77;10.32;;;;;;;;;;5043988;28;20629;-67
2021/04/18 11:59:05;;;;;;;14.70;9.90;;;;;;;;;;5046139;28;20875;-66
2021/04/18 12:01:30;;;;;;;17.10;9.70;;;;;;;;;;5046411;28;20033;-67
2021/04/18 12:03:56;;;;;;;15.82;9.45;;;;;;;;;;5047518;28;20037;-66
2021/04/18 12:06:21;;;;;;;16.23;10.25;;;;;;;;;;5047004;28;20482;-66
2021/04/18 12:08:47;;;;;;;13.60;9.55;;;;;;;;;;5046441;28;20037;-64
2021/04/18 12:11:12;;;;;;;17.17;10.02;;;;;;;;;;5046113;28;20041;-65
2021/04/18 12:13:37;;;;;;;16.75;10.18;;;;;;;;;;5045859;28;20033;-65
2021/04/18 12:16:03;;;;;;;17.40;9.20;;;;;;;;;;5046066;28;20373;-65
2021/04/18 12:18:29;;;;;;;18.42;9.85;;;;;;;;;;5045780;28;20094;-65
2021/04/18 12:20:54;;;;;;;22.45;9.75;;;;;;;;;;5045996;28;20431;-65
2021/04/18 12:23:19;;;;;;;18.55;10.05;;;;;;;;;;5046273;28;20059;-65
2021/04/18 12:25:45;;;;;;;18.45;10.30;;;;;;;;;;5046452;28;20032;-65
2021/04/18 12:28:11;;;;;;;15.05;9.13;;;;;;;;;;5046097;28;20120;-65
2021/04/18 12:30:37;;;;;;;15.77;10.15;;;;;;;;;;5045436;28;20738;-65
2021/04/18 12:33:02;;;;;;;18.75;9.80;;;;;;;;;;5043569;28;20029;-65
2021/04/18 12:35:27;;;;;;;17.15;10.73;;;;;;;;;;5044424;28;20102;-64
2021/04/18 12:37:53;;;;;;;15.82;9.63;;;;;;;;;;5038317;28;20036;-65
2021/04/18 12:40:18;;;;;;;19.02;10.32;;;;;;;;;;5040443;28;20052;-65
2021/04/18 12:42:43;;;;;;;19.65;10.05;;;;;;;;;;5043501;28;20040;-64
2021/04/18 12:45:09;;;;;;;15.70;9.52;;;;;;;;;;5043567;28;20039;-65
2021/04/18 12:47:34;;;;;;;18.83;9.65;;;;;;;;;;5043310;28;20044;-65
2021/04/18 12:50:00;;;;;;;15.07;8.98;;;;;;;;;;5041744;28;20056;-65
2021/04/18 12:52:26;;;;;;;13.63;9.00;;;;;;;;;;5043184;28;20033;-64
2021/04/18 12:54:51;;;;;;;16.17;9.68;;;;;;;;;;5043388;28;20029;-65
2021/04/18 12:57:17;;;;;;;15.30;9.27;;;;;;;;;;5043024;28;20051;-65
2021/04/18 12:59:43;;;;;;;14.95;9.15;;;;;;;;;;5042978;28;20060;-65
2021/04/18 13:02:09;;;;;;;16.83;9.13;;;;;;;;;;5042047;28;20529;-65
2021/04/18 13:04:34;;;;;;;16.42;9.80;;;;;;;;;;5043299;28;20019;-65
2021/04/18 13:06:59;;;;;;;15.82;10.05;;;;;;;;;;5042308;28;20029;-65
2021/04/18 13:09:25;;;;;;;16.63;9.10;;;;;;;;;;5043213;28;20040;-64
2021/04/18 13:11:50;;;;;;;21.48;10.07;;;;;;;;;;5042175;28;20025;-65
2021/04/18 13:14:15;;;;;;;13.93;8.98;;;;;;;;;;5042697;28;20060;-65
2021/04/18 13:16:41;;;;;;;15.20;9.77;;;;;;;;;;5041628;28;20037;-65
2021/04/18 13:19:06;;;;;;;17.80;11.10;;;;;;;;;;5042250;28;20449;-65
2021/04/18 13:21:31;;;;;;;18.48;10.63;;;;;;;;;;5043917;28;20094;-65
2021/04/18 13:23:57;;;;;;;15.18;9.68;;;;;;;;;;5044002;28;20060;-65
2021/04/18 13:26:23;;;;;;;16.58;10.73;;;;;;;;;;5044135;28;20087;-64
2021/04/18 13:28:48;;;;;;;19.30;11.07;;;;;;;;;;5044923;28;20048;-64
2021/04/18 13:31:14;;;;;;;17.73;10.23;;;;;;;;;;5044949;28;20039;-65
2021/04/18 13:33:39;;;;;;;17.88;11.13;;;;;;;;;;5037204;28;20052;-64
2021/04/18 13:36:05;;;;;;;17.75;10.63;;;;;;;;;;5042096;28;20032;-64
2021/04/18 13:38:30;;;;;;;14.90;9.90;;;;;;;;;;5040992;28;20057;-65
2021/04/18 13:40:55;;;;;;;17.15;9.93;;;;;;;;;;5041856;28;20056;-65
2021/04/18 13:43:21;;;;;;;17.98;9.88;;;;;;;;;;5041649;28;20029;-64
2021/04/18 13:45:46;;;;;;;19.80;10.43;;;;;;;;;;5041085;28;20036;-65
2021/04/18 13:48:11;;;;;;;17.52;10.02;;;;;;;;;;5042121;28;20364;-65
2021/04/18 13:50:36;;;;;;;20.20;10.10;;;;;;;;;;5042148;28;20025;-64
2021/04/18 13:53:02;;;;;;;16.55;10.73;;;;;;;;;;5042213;28;20086;-64
2021/04/18 13:55:28;;;;;;;18.90;11.60;;;;;;;;;;5030379;28;20135;-65
2021/04/18 13:57:53;;;;;;;16.30;9.57;;;;;;;;;;5041109;28;20495;-65
2021/04/18 14:00:19;;;;;;;15.77;9.75;;;;;;;;;;5040646;28;20059;-64
2021/04/18 14:02:45;;;;;;;17.02;10.02;;;;;;;;;;5040352;28;20013;-64
2021/04/18 14:05:11;;;;;;;15.52;9.52;;;;;;;;;;5039829;28;20029;-65
2021/04/18 14:07:37;;;;;;;16.85;10.13;;;;;;;;;;5041040;28;20051;-64
2021/04/18 14:10:03;;;;;;;14.60;9.15;;;;;;;;;;5040121;28;20724;-64
2021/04/18 14:12:28;;;;;;;17.65;10.05;;;;;;;;;;5040580;28;20107;-65
2021/04/18 14:14:54;;;;;;;16.48;9.82;;;;;;;;;;5039848;28;20115;-64
2021/04/18 14:17:19;;;;;;;16.00;9.70;;;;;;;;;;5040575;28;20098;-64